createdAt,value
2022-11-26T00:02:26.083Z,8.61
2022-11-26T00:04:55.460Z,8.44
2022-11-26T00:07:27.066Z,8.48
2022-11-26T00:09:55.625Z,8.50
2022-11-26T00:12:24.833Z,8.56
2022-11-26T00:14:53.265Z,8.42
2022-11-26T00:17:22.349Z,8.59
2022-11-26T00:19:50.487Z,8.44
2022-11-26T00:22:24.953Z,8.36
2022-11-26T00:24:54.844Z,8.38
2022-11-26T00:27:24.281Z,8.60
2022-11-26T00:29:52.451Z,8.37
2022-11-26T00:32:22.054Z,8.55
2022-11-26T00:34:50.147Z,8.31
2022-11-26T00:37:20.909Z,8.45
2022-11-26T00:39:49.237Z,8.40
2022-11-26T00:42:18.940Z,8.54
2022-11-26T00:44:47.099Z,8.32
2022-11-26T00:47:15.161Z,8.27
2022-11-26T00:49:43.263Z,8.41
2022-11-26T00:52:23.989Z,8.43
2022-11-26T00:54:52.071Z,8.41
2022-11-26T00:57:21.479Z,8.35
2022-11-26T00:59:49.552Z,8.25
2022-11-26T01:02:17.788Z,8.09
2022-11-26T01:04:45.980Z,8.05
2022-11-26T01:07:14.029Z,8.12
2022-11-26T01:09:48.843Z,8.12
2022-11-26T01:12:16.847Z,7.99
2022-11-26T01:14:46.205Z,7.98
2022-11-26T01:17:14.413Z,8.26
2022-11-26T01:19:42.854Z,7.99
2022-11-26T01:22:21.146Z,8.09
2022-11-26T01:24:49.798Z,7.93
2022-11-26T01:27:18.971Z,7.87
2022-11-26T01:29:48.496Z,7.85
2022-11-26T01:32:16.708Z,7.81
2022-11-26T01:34:44.809Z,7.68
2022-11-26T01:37:14.338Z,7.74
2022-11-26T01:39:42.577Z,7.74
2022-11-26T01:42:22.315Z,7.72
2022-11-26T01:44:51.695Z,7.69
2022-11-26T01:47:22.528Z,7.68
2022-11-26T01:50:33.113Z,7.76
2022-11-26T01:53:02.945Z,7.71
2022-11-26T01:55:36.361Z,7.67
2022-11-26T01:58:05.246Z,7.79
2022-11-26T02:00:34.752Z,7.88
2022-11-26T02:03:03.101Z,7.80
2022-11-26T02:05:36.081Z,7.81
2022-11-26T02:08:04.204Z,7.64
2022-11-26T02:10:32.296Z,7.72
2022-11-26T02:13:00.328Z,7.85
2022-11-26T02:15:31.323Z,7.95
2022-11-26T02:18:03.426Z,7.93
2022-11-26T02:20:42.723Z,7.78
2022-11-26T02:23:42.485Z,7.63
2022-11-26T02:26:48.836Z,7.63
2022-11-26T02:29:23.267Z,7.67
2022-11-26T02:31:57.793Z,7.83
2022-11-26T02:34:35.810Z,7.83
2022-11-26T02:37:08.688Z,7.82
2022-11-26T02:39:36.773Z,7.78
2022-11-26T02:42:05.099Z,7.75
2022-11-26T02:44:38.518Z,7.75
2022-11-26T02:47:11.891Z,7.86
2022-11-26T02:49:41.547Z,7.87
2022-11-26T02:52:11.037Z,8.03
2022-11-26T02:54:39.833Z,7.84
2022-11-26T02:57:12.857Z,7.86
2022-11-26T02:59:41.187Z,8.21
2022-11-26T03:02:12.862Z,8.20
2022-11-26T03:04:43.309Z,8.20
2022-11-26T03:07:13.093Z,8.11
2022-11-26T03:09:42.499Z,8.15
2022-11-26T03:12:10.559Z,8.21
2022-11-26T03:14:38.882Z,8.14
2022-11-26T03:17:07.030Z,8.08
2022-11-26T03:19:36.503Z,8.21
2022-11-26T03:22:04.963Z,8.23
2022-11-26T03:24:33.299Z,8.08
2022-11-26T03:27:01.376Z,8.24
2022-11-26T03:29:29.599Z,8.26
2022-11-26T03:31:57.911Z,8.34
2022-11-26T03:34:26.124Z,8.26
2022-11-26T03:36:55.605Z,8.24
2022-11-26T03:39:23.670Z,8.19
2022-11-26T03:41:51.779Z,8.28
2022-11-26T03:44:19.804Z,8.26
2022-11-26T03:46:47.888Z,8.29
2022-11-26T03:49:15.918Z,8.43
2022-11-26T03:51:43.945Z,8.35
2022-11-26T03:54:13.334Z,8.28
2022-11-26T03:56:41.757Z,8.27
2022-11-26T03:59:09.763Z,8.09
2022-11-26T04:01:39.736Z,8.19
2022-11-26T04:04:07.871Z,8.21
2022-11-26T04:06:36.248Z,8.11
2022-11-26T04:09:04.444Z,8.23
2022-11-26T04:11:34.063Z,8.20
2022-11-26T04:14:02.174Z,8.14
2022-11-26T04:16:30.277Z,8.06
2022-11-26T04:18:59.195Z,7.97
2022-11-26T04:21:27.208Z,8.10
2022-11-26T04:23:55.267Z,8.15
2022-11-26T04:26:23.274Z,8.18
2022-11-26T04:28:52.701Z,8.08
2022-11-26T04:31:21.091Z,8.06
2022-11-26T04:33:49.143Z,8.12
2022-11-26T04:36:17.193Z,8.08
2022-11-26T04:38:45.164Z,8.04
2022-11-26T04:41:13.197Z,8.06
2022-11-26T04:43:41.222Z,8.21
2022-11-26T04:46:10.702Z,8.08
2022-11-26T04:48:38.823Z,8.25
2022-11-26T04:51:07.231Z,8.12
2022-11-26T04:53:35.622Z,8.13
2022-11-26T04:56:03.891Z,8.11
2022-11-26T04:58:31.940Z,8.12
2022-11-26T05:01:00.099Z,8.18
2022-11-26T05:03:29.945Z,8.22
2022-11-26T05:05:57.969Z,8.17
2022-11-26T05:08:25.961Z,7.99
2022-11-26T05:10:55.291Z,8.01
2022-11-26T05:13:23.330Z,8.13
2022-11-26T05:15:51.414Z,8.04
2022-11-26T05:18:19.431Z,8.14
2022-11-26T05:20:49.066Z,8.15
2022-11-26T05:23:17.076Z,7.86
2022-11-26T05:25:45.099Z,7.97
2022-11-26T05:28:13.200Z,8.02
2022-11-26T05:30:41.264Z,8.16
2022-11-26T05:33:09.434Z,8.27
2022-11-26T05:35:38.991Z,8.10
2022-11-26T05:38:08.390Z,8.38
2022-11-26T05:40:36.391Z,8.20
2022-11-26T05:43:04.402Z,8.24
2022-11-26T05:45:32.472Z,8.31
2022-11-26T05:48:00.579Z,8.45
2022-11-26T05:50:28.609Z,8.32
2022-11-26T05:52:56.737Z,8.42
2022-11-26T05:55:26.190Z,8.27
2022-11-26T05:57:54.408Z,8.47
2022-11-26T06:00:22.733Z,8.37
2022-11-26T06:02:51.256Z,8.40
2022-11-26T06:05:19.505Z,8.37
2022-11-26T06:07:47.675Z,8.32
2022-11-26T06:10:16.191Z,8.38
2022-11-26T06:12:45.584Z,8.51
2022-11-26T06:15:13.611Z,8.35
2022-11-26T06:17:41.687Z,8.31
2022-11-26T06:20:10.438Z,8.47
2022-11-26T06:22:39.276Z,8.49
2022-11-26T06:25:09.163Z,8.47
2022-11-26T06:27:38.181Z,8.49
2022-11-26T06:30:09.861Z,8.28
2022-11-26T06:32:38.307Z,8.38
2022-11-26T06:35:09.106Z,8.45
2022-11-26T06:37:39.341Z,8.34
2022-11-26T06:40:09.132Z,8.29
2022-11-26T06:42:37.197Z,8.33
2022-11-26T06:45:07.454Z,8.43
2022-11-26T06:47:35.491Z,8.45
2022-11-26T06:50:09.308Z,8.44
2022-11-26T06:52:38.667Z,8.41
2022-11-26T06:55:07.281Z,8.36
2022-11-26T06:57:35.407Z,8.40
2022-11-26T07:00:03.590Z,8.49
2022-11-26T07:02:33.298Z,8.41
2022-11-26T07:05:01.461Z,8.49
2022-11-26T07:07:29.660Z,8.47
2022-11-26T07:09:57.714Z,8.47
2022-11-26T07:12:25.791Z,8.53
2022-11-26T07:14:53.787Z,8.52
2022-11-26T07:17:21.832Z,8.51
2022-11-26T07:19:51.870Z,8.63
2022-11-26T07:22:19.887Z,8.58
2022-11-26T07:24:48.046Z,8.68
2022-11-26T07:27:18.289Z,8.57
2022-11-26T07:29:59.229Z,8.66
2022-11-26T07:32:35.904Z,8.79
2022-11-26T07:35:14.924Z,8.71
2022-11-26T07:37:48.661Z,8.65
2022-11-26T07:40:28.645Z,8.64
2022-11-26T07:42:58.204Z,8.56
2022-11-26T07:45:32.830Z,8.59
2022-11-26T07:48:04.608Z,8.60
2022-11-26T07:50:36.684Z,8.50
2022-11-26T07:53:07.747Z,8.63
2022-11-26T07:55:39.516Z,8.47
2022-11-26T07:58:12.805Z,8.64
2022-11-26T08:00:43.783Z,8.59
2022-11-26T08:03:25.713Z,8.60
2022-11-26T08:06:02.984Z,8.48
2022-11-26T08:08:31.742Z,8.62
2022-11-26T08:11:00.076Z,8.58
2022-11-26T08:13:30.802Z,8.52
2022-11-26T08:16:01.755Z,8.62
2022-11-26T08:18:34.318Z,8.57
2022-11-26T08:21:13.871Z,8.52
2022-11-26T08:23:51.323Z,8.58
2022-11-26T08:26:27.394Z,8.62
2022-11-26T08:29:01.944Z,8.47
2022-11-26T08:31:37.940Z,8.56
2022-11-26T08:34:16.087Z,8.75
2022-11-26T08:37:06.640Z,8.75
2022-11-26T08:39:43.231Z,8.69
2022-11-26T08:42:15.775Z,8.57
2022-11-26T08:44:52.243Z,8.74
2022-11-26T08:47:26.539Z,8.66
2022-11-26T08:49:57.777Z,8.75
2022-11-26T08:52:37.133Z,9.01
2022-11-26T08:55:15.635Z,8.93
2022-11-26T08:57:49.725Z,9.12
2022-11-26T09:00:20.247Z,9.21
2022-11-26T09:02:50.798Z,9.04
2022-11-26T09:05:22.134Z,9.17
2022-11-26T09:07:54.145Z,9.24
2022-11-26T09:10:27.305Z,9.38
2022-11-26T09:12:55.920Z,9.59
2022-11-26T09:15:25.792Z,9.67
2022-11-26T09:17:55.622Z,9.53
2022-11-26T09:20:27.417Z,9.45
2022-11-26T09:23:04.075Z,9.46
2022-11-26T09:25:32.552Z,9.54
2022-11-26T09:28:10.195Z,9.65
2022-11-26T09:30:40.562Z,9.82
2022-11-26T09:33:13.507Z,9.67
2022-11-26T09:35:49.848Z,9.83
2022-11-26T09:38:30.412Z,9.77
2022-11-26T09:41:08.661Z,9.69
2022-11-26T09:43:51.912Z,9.65
2022-11-26T09:46:25.782Z,9.73
2022-11-26T09:48:55.407Z,9.65
2022-11-26T09:51:23.521Z,9.74
2022-11-26T09:53:53.179Z,9.63
2022-11-26T09:56:23.062Z,9.41
2022-11-26T09:58:56.844Z,9.51
2022-11-26T10:01:25.773Z,9.63
2022-11-26T10:03:53.852Z,9.48
2022-11-26T10:06:35.232Z,9.63
2022-11-26T10:09:17.635Z,9.60
2022-11-26T10:11:51.525Z,9.69
2022-11-26T10:14:33.865Z,9.56
2022-11-26T10:17:13.641Z,9.70
2022-11-26T10:19:47.566Z,9.73
2022-11-26T10:22:21.870Z,9.70
2022-11-26T10:24:51.717Z,9.84
2022-11-26T10:27:21.289Z,10.14
2022-11-26T10:29:52.202Z,9.77
2022-11-26T10:32:25.537Z,9.84
2022-11-26T10:34:54.558Z,9.88
2022-11-26T10:37:24.419Z,9.96
2022-11-26T10:40:02.042Z,9.98
2022-11-26T10:42:42.294Z,9.83
2022-11-26T10:45:19.396Z,9.85
2022-11-26T10:47:47.452Z,10.06
2022-11-26T10:53:21.221Z,10.02
2022-11-26T10:55:52.189Z,10.06
2022-11-26T10:58:22.346Z,10.17
2022-11-26T11:00:56.775Z,10.21
2022-11-26T11:03:51.884Z,10.35
2022-11-26T11:06:28.396Z,10.35
2022-11-26T11:08:56.476Z,10.24
2022-11-26T11:11:27.318Z,10.21
2022-11-26T11:13:56.364Z,10.14
2022-11-26T11:16:28.048Z,10.22
2022-11-26T11:18:58.038Z,10.29
2022-11-26T11:21:30.766Z,10.29
2022-11-26T11:24:09.435Z,10.25
2022-11-26T11:26:44.507Z,10.24
2022-11-26T11:29:27.818Z,10.26
2022-11-26T11:31:56.687Z,10.23
2022-11-26T11:34:28.705Z,10.35
2022-11-26T11:37:01.218Z,10.26
2022-11-26T11:39:31.538Z,10.30
2022-11-26T11:42:02.295Z,10.24
2022-11-26T11:44:39.597Z,10.52
2022-11-26T11:47:29.871Z,10.46
2022-11-26T11:50:09.133Z,10.48
2022-11-26T11:52:43.193Z,10.37
2022-11-26T11:55:19.944Z,10.19
2022-11-26T11:58:09.294Z,10.29
2022-11-26T12:00:42.307Z,10.26
2022-11-26T12:03:42.831Z,10.12
2022-11-26T12:06:20.388Z,10.11
2022-11-26T12:08:57.770Z,10.16
2022-11-26T12:11:33.008Z,10.32
2022-11-26T12:14:05.119Z,10.26
2022-11-26T12:16:36.524Z,10.27
2022-11-26T12:19:08.161Z,10.04
2022-11-26T12:21:38.860Z,10.14
2022-11-26T12:24:10.529Z,10.19
2022-11-26T12:26:41.598Z,10.40
2022-11-26T12:29:17.423Z,10.35
2022-11-26T12:31:47.860Z,10.18
2022-11-26T12:34:21.352Z,10.25
2022-11-26T12:36:54.497Z,10.32
2022-11-26T12:39:31.576Z,10.26
2022-11-26T12:42:03.812Z,10.03
2022-11-26T12:44:37.807Z,10.13
2022-11-26T12:47:11.765Z,10.03
2022-11-26T12:49:46.458Z,9.99
2022-11-26T12:52:27.559Z,9.96
2022-11-26T12:55:00.176Z,10.12
2022-11-26T12:57:29.853Z,10.32
2022-11-26T13:00:01.107Z,10.38
2022-11-26T13:02:31.946Z,10.19
2022-11-26T13:05:00.467Z,10.13
2022-11-26T13:07:47.355Z,10.31
2022-11-26T13:10:22.557Z,10.29
2022-11-26T13:12:59.174Z,10.39
2022-11-26T13:15:34.060Z,10.35
2022-11-26T13:18:02.768Z,10.38
2022-11-26T13:20:48.489Z,10.34
2022-11-26T13:23:29.513Z,10.22
2022-11-26T13:26:09.007Z,10.36
2022-11-26T13:28:47.623Z,10.16
2022-11-26T13:31:28.398Z,10.39
2022-11-26T13:34:16.976Z,10.32
2022-11-26T13:37:07.052Z,10.35
2022-11-26T13:40:10.094Z,10.34
2022-11-26T13:43:02.126Z,10.36
2022-11-26T13:45:50.768Z,10.19
2022-11-26T13:48:23.381Z,10.42
2022-11-26T13:50:55.352Z,10.20
2022-11-26T13:53:27.223Z,10.00
2022-11-26T13:55:58.108Z,10.23
2022-11-26T13:58:28.764Z,10.15
2022-11-26T14:00:57.074Z,10.20
2022-11-26T14:03:47.006Z,10.21
2022-11-26T14:06:15.894Z,10.27
2022-11-26T14:08:46.398Z,10.19
2022-11-26T14:11:34.961Z,10.07
2022-11-26T14:14:31.823Z,10.03
2022-11-26T14:17:23.374Z,10.07
2022-11-26T14:20:08.375Z,10.09
2022-11-26T14:22:37.278Z,10.19
2022-11-26T14:25:11.044Z,10.14
2022-11-26T14:27:43.101Z,10.19
2022-11-26T14:30:20.315Z,10.38
2022-11-26T14:32:55.281Z,10.42
2022-11-26T14:35:33.645Z,10.28
2022-11-26T14:38:04.511Z,10.24
2022-11-26T14:40:36.494Z,10.09
2022-11-26T14:43:09.311Z,10.17
2022-11-26T14:45:38.155Z,10.13
2022-11-26T14:48:07.032Z,10.21
2022-11-26T14:50:38.227Z,9.98
2022-11-26T14:53:08.323Z,10.03
2022-11-26T14:55:36.598Z,9.91
2022-11-26T14:58:09.341Z,9.92
2022-11-26T15:00:38.328Z,9.95
2022-11-26T15:03:20.537Z,9.83
2022-11-26T15:05:50.040Z,9.67
2022-11-26T15:08:20.379Z,9.79
2022-11-26T15:10:51.289Z,9.85
2022-11-26T15:13:27.657Z,9.84
2022-11-26T15:16:02.307Z,9.78
2022-11-26T15:18:33.066Z,9.80
2022-11-26T15:21:16.508Z,9.43
2022-11-26T15:23:47.736Z,9.52
2022-11-26T15:26:21.847Z,9.62
2022-11-26T15:29:01.226Z,9.65
2022-11-26T15:31:41.752Z,9.50
2022-11-26T15:34:15.209Z,9.43
2022-11-26T15:36:44.698Z,9.57
2022-11-26T15:39:31.655Z,9.49
2022-11-26T15:42:04.732Z,9.51
2022-11-26T15:44:44.888Z,9.40
2022-11-26T15:47:19.756Z,9.33
2022-11-26T15:49:58.500Z,9.38
2022-11-26T15:52:51.201Z,9.33
2022-11-26T15:55:31.751Z,9.35
2022-11-26T15:58:05.672Z,9.55
2022-11-26T16:00:42.047Z,9.43
2022-11-26T16:03:50.804Z,9.39
2022-11-26T16:06:30.493Z,9.47
2022-11-26T16:09:07.566Z,9.31
2022-11-26T16:11:38.279Z,9.51
2022-11-26T16:14:31.783Z,9.37
2022-11-26T16:17:08.464Z,9.40
2022-11-26T16:19:43.699Z,9.43
2022-11-26T16:22:28.488Z,9.42
2022-11-26T16:25:31.918Z,9.51
2022-11-26T16:28:17.151Z,9.45
2022-11-26T16:30:48.970Z,9.34
2022-11-26T16:33:21.872Z,9.34
2022-11-26T16:36:00.405Z,9.34
2022-11-26T16:38:42.935Z,9.15
2022-11-26T16:41:18.204Z,9.08
2022-11-26T16:43:50.594Z,9.28
2022-11-26T16:46:27.284Z,9.18
2022-11-26T16:49:10.349Z,9.04
2022-11-26T16:51:42.568Z,9.18
2022-11-26T16:54:18.925Z,8.93
2022-11-26T16:56:59.774Z,9.15
2022-11-26T16:59:34.103Z,8.92
2022-11-26T17:02:07.617Z,9.03
2022-11-26T17:04:39.623Z,8.95
2022-11-26T17:07:10.280Z,9.00
2022-11-26T17:09:41.124Z,8.92
2022-11-26T17:12:40.747Z,8.90
2022-11-26T17:15:12.393Z,8.89
2022-11-26T17:17:48.521Z,8.82
2022-11-26T17:20:32.408Z,8.92
2022-11-26T17:23:03.831Z,8.78
2022-11-26T17:25:34.807Z,9.09
2022-11-26T17:28:13.981Z,8.86
2022-11-26T17:30:59.302Z,8.90
2022-11-26T17:33:30.563Z,8.73
2022-11-26T17:35:59.968Z,8.99
2022-11-26T17:38:29.592Z,8.92
2022-11-26T17:40:59.642Z,8.84
2022-11-26T17:43:32.644Z,8.99
2022-11-26T17:46:03.683Z,8.83
2022-11-26T17:48:38.696Z,9.06
2022-11-26T17:51:20.671Z,9.01
2022-11-26T17:53:53.987Z,8.80
2022-11-26T17:56:27.226Z,8.75
2022-11-26T17:59:12.560Z,8.77
2022-11-26T18:01:58.630Z,8.69
2022-11-26T18:04:28.654Z,8.61
2022-11-26T18:07:05.574Z,8.68
2022-11-26T18:09:43.437Z,8.73
2022-11-26T18:12:33.811Z,8.76
2022-11-26T18:15:06.372Z,8.78
2022-11-26T18:17:35.064Z,8.74
2022-11-26T18:20:03.865Z,8.69
2022-11-26T18:22:33.309Z,8.81
2022-11-26T18:25:02.079Z,8.83
2022-11-26T18:27:31.210Z,8.82
2022-11-26T18:30:00.494Z,8.79
2022-11-26T18:32:30.998Z,8.68
2022-11-26T18:35:00.074Z,8.56
2022-11-26T18:37:28.331Z,8.63
2022-11-26T18:39:57.314Z,8.50
2022-11-26T18:42:37.088Z,8.50
2022-11-26T18:45:08.021Z,8.52
2022-11-26T18:47:38.656Z,8.44
2022-11-26T18:50:10.060Z,8.56
2022-11-26T18:52:39.354Z,8.58
2022-11-26T18:55:09.975Z,8.66
2022-11-26T18:57:38.956Z,8.43
2022-11-26T19:00:11.361Z,8.78
2022-11-26T19:02:41.726Z,8.57
2022-11-26T19:05:13.501Z,8.69
2022-11-26T19:07:43.347Z,8.74
2022-11-26T19:10:13.560Z,8.74
2022-11-26T19:12:48.519Z,8.49
2022-11-26T19:15:18.875Z,8.73
2022-11-26T19:17:53.300Z,8.53
2022-11-26T19:20:24.579Z,8.57
2022-11-26T19:22:53.645Z,8.79
2022-11-26T19:25:22.608Z,8.58
2022-11-26T19:27:52.217Z,8.60
2022-11-26T19:30:21.778Z,8.70
2022-11-26T19:32:55.279Z,8.59
2022-11-26T19:35:25.314Z,8.72
2022-11-26T19:37:54.673Z,8.61
2022-11-26T19:40:23.778Z,8.72
2022-11-26T19:42:53.638Z,8.58
2022-11-26T19:45:22.673Z,8.64
2022-11-26T19:47:54.980Z,8.56
2022-11-26T19:50:24.165Z,8.36
2022-11-26T19:52:53.823Z,8.51
2022-11-26T19:55:23.122Z,8.47
2022-11-26T19:57:52.073Z,8.45
2022-11-26T20:00:23.751Z,8.43
2022-11-26T20:02:57.515Z,8.27
2022-11-26T20:05:26.811Z,8.37
2022-11-26T20:07:56.734Z,8.50
2022-11-26T20:10:25.850Z,8.50
2022-11-26T20:12:57.089Z,8.61
2022-11-26T20:15:26.878Z,8.67
2022-11-26T20:17:57.610Z,8.48
2022-11-26T20:20:27.145Z,8.58
2022-11-26T20:22:57.379Z,8.49
2022-11-26T20:25:30.199Z,8.43
2022-11-26T20:28:00.450Z,8.28
2022-11-26T20:30:30.534Z,8.25
2022-11-26T20:33:02.671Z,8.42
2022-11-26T20:35:31.693Z,8.28
2022-11-26T20:38:03.218Z,8.40
2022-11-26T20:40:33.549Z,8.48
2022-11-26T20:43:03.075Z,8.26
2022-11-26T20:45:32.821Z,8.33
2022-11-26T20:48:04.608Z,8.43
2022-11-26T20:50:34.144Z,8.48
2022-11-26T20:53:04.316Z,8.40
2022-11-26T20:55:33.387Z,8.30
2022-11-26T20:58:03.273Z,8.34
2022-11-26T21:00:32.284Z,8.41
2022-11-26T21:03:03.657Z,8.47
2022-11-26T21:05:34.857Z,8.38
2022-11-26T21:08:04.270Z,8.47
2022-11-26T21:10:33.554Z,8.46
2022-11-26T21:13:01.659Z,8.52
2022-11-26T21:15:31.134Z,8.63
2022-11-26T21:18:02.320Z,8.43
2022-11-26T21:20:35.980Z,8.34
2022-11-26T21:23:04.743Z,8.52
2022-11-26T21:25:32.829Z,8.44
2022-11-26T21:28:01.178Z,8.40
2022-11-26T21:30:29.838Z,8.61
2022-11-26T21:33:12.518Z,8.76
2022-11-26T21:35:43.617Z,8.51
2022-11-26T21:38:26.519Z,8.60
2022-11-26T21:40:55.483Z,8.82
2022-11-26T21:43:37.966Z,8.58
2022-11-26T21:46:16.998Z,8.62
2022-11-26T21:48:48.465Z,8.64
2022-11-26T21:51:19.690Z,8.71
2022-11-26T21:53:50.370Z,8.47
2022-11-26T21:56:31.392Z,8.50
2022-11-26T21:59:09.621Z,8.55
2022-11-26T22:01:50.755Z,8.48
2022-11-26T22:04:41.035Z,8.40
2022-11-26T22:07:17.290Z,8.33
2022-11-26T22:09:56.812Z,8.35
2022-11-26T22:12:27.759Z,8.35
2022-11-26T22:14:56.364Z,8.27
2022-11-26T22:17:30.850Z,8.27
2022-11-26T22:20:06.575Z,8.31
2022-11-26T22:22:36.999Z,8.32
2022-11-26T22:25:10.860Z,8.40
2022-11-26T22:27:46.642Z,8.32
2022-11-26T22:30:26.171Z,8.26
2022-11-26T22:33:02.541Z,8.16
2022-11-26T22:35:37.334Z,8.21
2022-11-26T22:38:05.690Z,8.50
2022-11-26T22:40:35.568Z,8.26
2022-11-26T22:43:05.962Z,8.29
2022-11-26T22:45:40.981Z,8.15
2022-11-26T22:48:18.431Z,8.04
2022-11-26T22:50:55.692Z,7.95
2022-11-26T22:53:33.119Z,8.00
2022-11-26T22:56:07.067Z,8.22
2022-11-26T22:58:44.519Z,8.31
2022-11-26T23:01:20.364Z,8.16
2022-11-26T23:03:57.863Z,8.11
2022-11-26T23:06:40.919Z,8.14
2022-11-26T23:09:16.590Z,8.22
2022-11-26T23:11:52.695Z,8.21
2022-11-26T23:14:26.086Z,7.91
2022-11-26T23:16:54.758Z,8.07
2022-11-26T23:19:23.853Z,8.16
2022-11-26T23:22:04.553Z,8.19
2022-11-26T23:24:36.711Z,8.16
2022-11-26T23:27:06.558Z,7.98
2022-11-26T23:29:38.481Z,8.11
2022-11-26T23:32:15.381Z,8.05
2022-11-26T23:34:55.348Z,7.94
2022-11-26T23:37:37.226Z,7.94
2022-11-26T23:40:14.354Z,7.85
2022-11-26T23:43:00.231Z,8.04
2022-11-26T23:45:33.706Z,7.99
2022-11-26T23:48:04.938Z,8.04
2022-11-26T23:50:35.662Z,8.15
2022-11-26T23:53:07.964Z,7.95
2022-11-26T23:55:37.145Z,8.16
2022-11-26T23:58:16.748Z,7.93
